createdAt,value
2019-03-27T00:02:43.489Z,9.03
2019-03-27T00:14:24.806Z,9.17
2019-03-27T00:19:31.157Z,8.97
2019-03-27T00:24:36.552Z,8.83
2019-03-27T00:29:43.271Z,8.50
2019-03-27T00:34:49.098Z,9.47
2019-03-27T00:39:54.142Z,9.33
2019-03-27T00:45:02.022Z,8.50
2019-03-27T00:50:10.317Z,8.43
2019-03-27T00:55:15.707Z,9.47
2019-03-27T01:00:38.766Z,10.27
2019-03-27T01:05:44.153Z,9.93
2019-03-27T01:10:52.201Z,9.50
2019-03-27T01:15:59.927Z,10.27
2019-03-27T01:21:05.136Z,9.73
2019-03-27T01:26:10.200Z,9.03
2019-03-27T01:31:15.500Z,10.27
2019-03-27T01:36:20.776Z,10.30
2019-03-27T01:41:26.253Z,9.83
2019-03-27T01:46:31.594Z,9.73
2019-03-27T01:51:36.664Z,10.73
2019-03-27T01:56:42.013Z,9.87
2019-03-27T02:01:47.869Z,10.37
2019-03-27T02:06:53.165Z,10.13
2019-03-27T02:11:58.648Z,11.33
2019-03-27T02:17:03.888Z,9.93
2019-03-27T02:22:12.205Z,11.40
2019-03-27T02:27:20.026Z,9.93
2019-03-27T02:32:28.438Z,11.40
2019-03-27T02:37:34.571Z,9.80
2019-03-27T02:42:39.635Z,10.75
2019-03-27T02:47:45.226Z,10.40
2019-03-27T02:52:50.677Z,9.93
2019-03-27T02:57:56.361Z,9.73
2019-03-27T03:03:01.675Z,9.63
2019-03-27T03:08:07.875Z,9.97
2019-03-27T03:13:13.074Z,10.23
2019-03-27T03:18:18.370Z,9.70
2019-03-27T03:23:23.529Z,9.60
2019-03-27T03:28:28.578Z,9.40
2019-03-27T03:33:34.135Z,8.93
2019-03-27T03:38:39.599Z,9.27
2019-03-27T03:43:44.866Z,9.70
2019-03-27T03:48:50.314Z,10.80
2019-03-27T03:53:57.145Z,9.50
2019-03-27T03:59:03.556Z,9.30
2019-03-27T04:04:11.158Z,9.47
2019-03-27T04:09:17.322Z,9.78
2019-03-27T04:14:22.830Z,10.07
2019-03-27T04:19:28.444Z,10.27
2019-03-27T04:24:34.895Z,10.53
2019-03-27T04:29:40.322Z,9.20
2019-03-27T04:34:47.513Z,10.23
2019-03-27T04:39:53.340Z,9.23
2019-03-27T04:44:58.926Z,10.30
2019-03-27T04:50:04.048Z,12.57
2019-03-27T04:55:10.238Z,10.13
2019-03-27T05:00:16.127Z,10.30
2019-03-27T05:05:21.573Z,10.10
2019-03-27T05:10:28.216Z,10.60
2019-03-27T05:15:33.667Z,9.47
2019-03-27T05:20:38.828Z,9.50
2019-03-27T05:25:46.091Z,10.10
2019-03-27T05:30:53.165Z,9.23
2019-03-27T05:35:59.548Z,10.17
2019-03-27T05:41:05.141Z,10.03
2019-03-27T05:46:10.733Z,10.00
2019-03-27T05:51:16.089Z,9.60
2019-03-27T05:56:22.169Z,9.83
2019-03-27T06:01:28.044Z,9.97
2019-03-27T06:06:33.480Z,10.67
2019-03-27T06:11:42.075Z,10.77
2019-03-27T06:16:47.886Z,10.27
2019-03-27T06:21:53.010Z,9.87
2019-03-27T06:26:59.786Z,10.67
2019-03-27T06:32:05.222Z,9.93
2019-03-27T06:37:10.629Z,10.93
2019-03-27T06:42:16.386Z,10.80
2019-03-27T06:47:21.715Z,11.00
2019-03-27T06:52:26.949Z,11.47
2019-03-27T06:57:32.335Z,10.63
2019-03-27T07:02:37.240Z,14.70
2019-03-27T07:07:44.225Z,14.97
2019-03-27T07:12:49.424Z,16.27
2019-03-27T07:17:54.719Z,12.07
2019-03-27T07:23:00.067Z,13.00
2019-03-27T07:28:05.529Z,11.87
2019-03-27T07:33:10.920Z,12.80
2019-03-27T07:38:16.498Z,13.60
2019-03-27T07:43:21.692Z,13.60
2019-03-27T07:48:27.377Z,12.87
2019-03-27T07:53:32.996Z,14.43
2019-03-27T07:58:38.721Z,13.80
2019-03-27T08:36:55.397Z,13.83
2019-03-27T09:08:27.050Z,12.90
2019-03-27T09:13:48.353Z,11.73
2019-03-27T13:00:37.951Z,2.20
2019-03-27T13:05:44.050Z,1.67
2019-03-27T13:10:52.273Z,1.87
2019-03-27T13:16:07.434Z,2.03
2019-03-27T13:21:26.178Z,2.23
2019-03-27T13:26:25.081Z,2.53
2019-03-27T13:31:39.054Z,2.93
2019-03-27T13:36:48.457Z,3.30
2019-03-27T13:42:18.638Z,2.50
2019-03-27T13:47:40.498Z,3.80
2019-03-27T13:53:09.376Z,3.70
2019-03-27T13:58:20.374Z,2.90
2019-03-27T14:15:33.943Z,2.60
2019-03-27T14:20:40.669Z,2.97
2019-03-27T14:25:55.487Z,3.03
2019-03-27T14:31:20.960Z,3.40
2019-03-27T14:37:14.512Z,3.10
2019-03-27T14:42:23.224Z,3.50
2019-03-27T14:47:28.876Z,4.37
2019-03-27T14:52:37.789Z,3.90
2019-03-27T14:57:57.114Z,4.10
2019-03-27T15:03:05.960Z,4.20
2019-03-27T15:08:19.142Z,4.27
2019-03-27T15:13:24.949Z,3.83
2019-03-27T15:18:30.137Z,4.13
2019-03-27T15:23:36.537Z,3.73
2019-03-27T15:28:42.529Z,3.10
2019-03-27T15:34:05.808Z,3.50
2019-03-27T15:39:19.157Z,4.80
2019-03-27T15:44:35.217Z,6.27
2019-03-27T15:49:48.683Z,7.53
2019-03-27T15:55:29.249Z,5.43
2019-03-27T16:06:34.358Z,5.57
2019-03-27T16:11:50.922Z,5.43
2019-03-27T16:17:13.607Z,4.83
2019-03-27T16:22:16.113Z,4.70
2019-03-27T16:27:38.426Z,4.93
2019-03-27T16:33:12.489Z,8.07
2019-03-27T16:38:40.054Z,5.13
2019-03-27T16:44:28.697Z,4.37
2019-03-27T16:49:34.526Z,4.43
2019-03-27T16:54:47.026Z,4.07
2019-03-27T17:00:00.986Z,4.33
2019-03-27T17:05:17.777Z,5.80
2019-03-27T17:10:23.173Z,4.03
2019-03-27T17:15:41.603Z,3.57
2019-03-27T17:20:47.559Z,4.60
2019-03-27T17:25:58.880Z,5.37
2019-03-27T17:31:06.298Z,4.63
2019-03-27T17:36:12.657Z,5.33
2019-03-27T17:41:22.365Z,5.77
2019-03-27T17:46:28.566Z,6.00
2019-03-27T17:51:34.943Z,6.30
2019-03-27T17:56:40.254Z,6.13
2019-03-27T18:01:44.987Z,5.53
2019-03-27T18:06:51.482Z,5.83
2019-03-27T18:12:04.665Z,6.43
2019-03-27T18:17:10.720Z,5.80
2019-03-27T18:22:18.649Z,5.77
2019-03-27T18:27:25.339Z,6.30
2019-03-27T18:32:38.154Z,6.50
2019-03-27T18:37:46.339Z,6.10
2019-03-27T18:42:51.907Z,6.13
2019-03-27T18:47:57.610Z,6.30
2019-03-27T18:53:02.863Z,5.92
2019-03-27T18:58:11.786Z,6.57
2019-03-27T19:03:17.271Z,6.50
2019-03-27T19:08:22.984Z,6.50
2019-03-27T19:13:28.988Z,6.67
2019-03-27T19:18:34.856Z,6.70
2019-03-27T19:23:42.975Z,7.90
2019-03-27T19:28:49.129Z,6.07
2019-03-27T19:33:56.414Z,5.93
2019-03-27T19:39:02.607Z,5.63
2019-03-27T19:44:08.680Z,5.40
2019-03-27T19:49:14.852Z,6.63
2019-03-27T19:54:26.988Z,6.23
2019-03-27T19:59:28.744Z,6.70
2019-03-27T20:04:35.428Z,6.23
2019-03-27T20:09:41.847Z,6.97
2019-03-27T20:14:47.419Z,8.23
2019-03-27T20:19:52.512Z,7.57
2019-03-27T20:24:58.799Z,6.23
2019-03-27T20:30:05.496Z,6.80
2019-03-27T20:35:11.338Z,6.80
2019-03-27T20:40:17.677Z,7.33
2019-03-27T20:45:23.532Z,6.17
2019-03-27T20:50:28.951Z,5.93
2019-03-27T20:55:37.483Z,6.45
2019-03-27T21:00:43.760Z,6.13
2019-03-27T21:05:49.475Z,5.97
2019-03-27T21:11:00.677Z,6.83
2019-03-27T21:16:06.363Z,6.50
2019-03-27T21:21:12.096Z,6.30
2019-03-27T21:26:17.683Z,6.33
2019-03-27T21:31:23.418Z,6.47
2019-03-27T21:36:29.469Z,7.67
2019-03-27T21:41:34.908Z,7.70
2019-03-27T21:46:41.056Z,7.27
2019-03-27T21:51:46.907Z,7.30
2019-03-27T21:56:53.494Z,7.63
2019-03-27T22:02:12.017Z,8.93
2019-03-27T22:07:19.366Z,8.87
2019-03-27T22:12:24.130Z,7.90
2019-03-27T22:17:29.270Z,7.33
2019-03-27T22:22:35.128Z,8.07
2019-03-27T22:27:40.721Z,7.60
2019-03-27T22:32:48.823Z,7.23
2019-03-27T22:37:54.497Z,7.40
2019-03-27T22:43:00.074Z,8.13
2019-03-27T22:48:07.638Z,7.37
2019-03-27T22:53:14.874Z,7.87
2019-03-27T22:58:20.240Z,8.13
2019-03-27T23:03:25.814Z,7.33
2019-03-27T23:08:31.679Z,7.87
2019-03-27T23:13:36.942Z,6.73
2019-03-27T23:18:42.323Z,7.10
2019-03-27T23:23:47.703Z,9.57
2019-03-27T23:28:55.475Z,9.73
2019-03-27T23:34:01.220Z,8.83
2019-03-27T23:39:09.275Z,9.23
2019-03-27T23:44:14.446Z,9.10
2019-03-27T23:49:20.952Z,8.93
2019-03-27T23:54:26.018Z,8.47
2019-03-27T23:59:30.996Z,8.03
